Camperville, Canada
Current Conditions -  °F | °C
As of 10:00 PM on Saturday 24 Jan 2015 (Local Time) from CYDN Reporting Station
Light Snow Light Snow  
Wind Chill: -3°   Ceiling: 3300
Heat Index:   Visibility: 4mi
Dew Point:   Wind: 7mph
Humidity: 85%   Direction: 90°E
Pressure: 29.92"   Gusts: NA
Location:  52.02°N, 100.15°W
Report Text: CYDN 250400Z AUTO 09006KT 4SM -SN OVC033 M13/M15 A2992 RMK SLP157
Loading
Personal Weather Stations






























Interactive Weather Map New forecast layout! Learn more

10-Day Weather Forecast

Advertisements
Track Severe Weather on mobile